createdAt,value
2022-12-27T00:01:45.535Z,1.17
2022-12-27T00:04:49.720Z,0.93
2022-12-27T00:07:53.097Z,1.10
2022-12-27T00:10:58.119Z,1.02
2022-12-27T00:14:01.665Z,1.02
2022-12-27T00:17:06.103Z,0.95
2022-12-27T00:20:11.851Z,0.90
2022-12-27T00:23:15.497Z,0.98
2022-12-27T00:26:21.552Z,1.40
2022-12-27T00:29:25.099Z,1.13
2022-12-27T00:32:28.634Z,1.17
2022-12-27T00:35:32.181Z,1.02
2022-12-27T00:38:35.832Z,0.95
2022-12-27T00:41:40.647Z,1.27
2022-12-27T00:44:44.088Z,1.10
2022-12-27T00:47:47.710Z,1.02
2022-12-27T00:50:51.241Z,1.00
2022-12-27T00:53:55.777Z,1.23
2022-12-27T00:57:00.589Z,1.10
2022-12-27T01:00:09.892Z,1.33
2022-12-27T01:03:13.890Z,1.15
2022-12-27T01:06:18.368Z,1.75
2022-12-27T01:09:21.804Z,1.00
2022-12-27T01:12:26.703Z,1.10
2022-12-27T01:15:30.476Z,0.70
2022-12-27T01:18:33.988Z,0.98
2022-12-27T01:21:37.647Z,1.10
2022-12-27T01:24:41.262Z,1.17
2022-12-27T01:27:46.743Z,0.98
2022-12-27T01:30:50.343Z,1.58
2022-12-27T01:33:56.089Z,1.08
2022-12-27T01:36:59.496Z,1.10
2022-12-27T01:40:03.613Z,1.00
2022-12-27T01:43:07.526Z,1.08
2022-12-27T01:46:10.972Z,0.82
2022-12-27T01:49:14.487Z,0.80
2022-12-27T01:52:18.337Z,0.88
2022-12-27T01:55:25.102Z,1.00
2022-12-27T01:58:32.314Z,0.98
2022-12-27T02:01:37.097Z,1.02
2022-12-27T02:04:40.588Z,1.35
2022-12-27T02:08:00.203Z,1.25
2022-12-27T02:11:04.645Z,1.35
2022-12-27T02:14:09.754Z,0.85
2022-12-27T02:17:15.054Z,1.20
2022-12-27T02:20:19.479Z,0.70
2022-12-27T02:23:52.824Z,1.17
2022-12-27T02:27:04.138Z,1.10
2022-12-27T02:30:10.048Z,0.95
2022-12-27T02:33:16.510Z,1.08
2022-12-27T02:36:22.314Z,1.10
2022-12-27T02:39:26.473Z,0.93
2022-12-27T02:42:48.425Z,1.15
2022-12-27T02:46:18.431Z,1.45
2022-12-27T02:49:48.734Z,0.82
2022-12-27T02:53:07.864Z,1.00
2022-12-27T02:56:35.805Z,0.95
2022-12-27T03:00:04.241Z,1.20
2022-12-27T03:03:24.250Z,1.08
2022-12-27T03:06:41.014Z,0.80
2022-12-27T03:10:09.756Z,0.82
2022-12-27T03:13:35.814Z,1.45
2022-12-27T03:16:55.897Z,1.23
2022-12-27T03:20:19.509Z,1.45
2022-12-27T03:23:41.141Z,1.58
2022-12-27T03:26:47.922Z,1.20
2022-12-27T03:30:11.017Z,1.40
2022-12-27T03:33:15.693Z,1.40
2022-12-27T03:36:39.782Z,0.90
2022-12-27T03:39:45.677Z,1.38
2022-12-27T03:43:09.107Z,0.73
2022-12-27T03:46:39.044Z,1.60
2022-12-27T03:49:46.056Z,1.17
2022-12-27T03:52:52.789Z,1.27
2022-12-27T03:55:57.717Z,1.33
2022-12-27T03:59:01.393Z,1.42
2022-12-27T04:02:05.872Z,1.05
2022-12-27T04:05:10.242Z,1.17
2022-12-27T04:08:33.089Z,0.98
2022-12-27T04:11:54.286Z,1.42
2022-12-27T04:15:15.276Z,1.23
2022-12-27T04:18:36.531Z,1.00
2022-12-27T04:21:57.452Z,1.48
2022-12-27T04:25:19.677Z,1.05
2022-12-27T04:28:40.728Z,1.38
2022-12-27T04:32:03.439Z,1.05
2022-12-27T04:35:07.974Z,1.30
2022-12-27T04:38:11.488Z,1.45
2022-12-27T04:41:33.802Z,1.75
2022-12-27T04:44:54.259Z,1.17
2022-12-27T04:48:15.339Z,1.38
2022-12-27T04:51:36.266Z,1.50
2022-12-27T04:54:57.795Z,1.33
2022-12-27T04:58:02.602Z,1.77
2022-12-27T05:01:24.382Z,1.52
2022-12-27T05:04:27.995Z,2.03
2022-12-27T05:07:49.129Z,1.60
2022-12-27T05:11:09.423Z,1.42
2022-12-27T05:14:16.116Z,1.42
2022-12-27T05:17:19.969Z,1.38
2022-12-27T05:20:23.729Z,1.35
2022-12-27T05:23:44.650Z,2.20
2022-12-27T05:26:48.153Z,1.70
2022-12-27T05:29:53.537Z,1.75
2022-12-27T05:32:57.068Z,1.80
2022-12-27T05:36:01.645Z,1.50
2022-12-27T05:39:05.356Z,1.52
2022-12-27T05:42:08.786Z,1.88
2022-12-27T05:45:14.152Z,1.42
2022-12-27T05:48:17.621Z,1.90
2022-12-27T05:51:22.275Z,2.08
2022-12-27T05:54:26.058Z,1.65
2022-12-27T05:57:29.638Z,1.88
2022-12-27T06:00:34.616Z,1.77
2022-12-27T06:03:38.975Z,1.42
2022-12-27T06:06:42.469Z,1.70
2022-12-27T06:09:46.162Z,1.73
2022-12-27T06:12:49.747Z,1.50
2022-12-27T06:15:54.680Z,1.80
2022-12-27T06:18:58.308Z,1.73
2022-12-27T06:22:01.746Z,1.90
2022-12-27T06:25:08.682Z,1.65
2022-12-27T06:28:14.312Z,1.85
2022-12-27T06:31:19.691Z,1.80
2022-12-27T06:34:23.283Z,1.95
2022-12-27T06:37:27.000Z,1.80
2022-12-27T06:40:31.483Z,1.60
2022-12-27T06:43:35.336Z,1.58
2022-12-27T06:46:40.333Z,1.35
2022-12-27T06:49:43.809Z,1.50
2022-12-27T06:52:47.220Z,1.60
2022-12-27T06:55:51.452Z,2.00
2022-12-27T06:58:57.715Z,1.55
2022-12-27T07:02:03.596Z,1.02
2022-12-27T07:05:07.626Z,1.48
2022-12-27T07:08:11.174Z,0.88
2022-12-27T07:11:15.289Z,1.40
2022-12-27T07:14:18.766Z,1.02
2022-12-27T07:17:25.681Z,1.48
2022-12-27T07:20:29.295Z,1.35
2022-12-27T07:23:32.793Z,1.63
2022-12-27T07:26:36.325Z,1.33
2022-12-27T07:29:45.318Z,1.08
2022-12-27T07:32:50.852Z,1.55
2022-12-27T07:35:59.412Z,1.50
2022-12-27T07:39:02.916Z,0.95
2022-12-27T07:42:08.638Z,1.90
2022-12-27T07:45:14.839Z,1.27
2022-12-27T07:48:20.011Z,1.10
2022-12-27T07:51:24.063Z,1.05
2022-12-27T07:54:37.846Z,1.10
2022-12-27T07:57:41.327Z,1.08
2022-12-27T08:00:46.221Z,1.20
2022-12-27T08:03:52.207Z,1.05
2022-12-27T08:06:56.797Z,1.02
2022-12-27T08:10:15.074Z,1.35
2022-12-27T08:13:28.014Z,1.20
2022-12-27T08:16:32.912Z,1.00
2022-12-27T08:19:52.915Z,1.35
2022-12-27T08:22:56.936Z,1.20
2022-12-27T08:26:04.692Z,1.42
2022-12-27T08:29:51.932Z,1.35
2022-12-27T08:33:40.380Z,1.33
2022-12-27T08:40:50.999Z,1.45
2022-12-27T08:44:01.499Z,1.40
2022-12-27T08:47:10.492Z,1.42
2022-12-27T08:50:17.310Z,1.33
2022-12-27T08:53:27.512Z,1.20
2022-12-27T08:56:33.468Z,1.30
2022-12-27T08:59:44.512Z,2.13
2022-12-27T09:02:48.702Z,1.33
2022-12-27T09:05:52.597Z,1.45
2022-12-27T09:09:01.500Z,1.38
2022-12-27T09:12:10.722Z,1.13
2022-12-27T09:15:16.660Z,1.25
2022-12-27T09:18:20.558Z,1.38
2022-12-27T09:21:26.725Z,1.40
2022-12-27T09:24:31.772Z,0.77
2022-12-27T09:27:42.458Z,1.38
2022-12-27T09:30:50.770Z,1.15
2022-12-27T09:33:55.183Z,0.77
2022-12-27T09:36:58.992Z,1.30
2022-12-27T09:40:03.459Z,0.90
2022-12-27T09:43:22.342Z,1.33
2022-12-27T09:46:33.996Z,1.30
2022-12-27T09:49:39.408Z,1.80
2022-12-27T09:52:45.352Z,1.50
2022-12-27T09:55:50.541Z,1.20
2022-12-27T09:58:57.233Z,0.93
2022-12-27T10:02:01.195Z,1.10
2022-12-27T10:05:24.165Z,1.23
2022-12-27T10:08:34.389Z,1.40
2022-12-27T10:11:43.719Z,1.08
2022-12-27T10:15:05.536Z,1.00
2022-12-27T10:18:15.302Z,1.27
2022-12-27T10:21:22.861Z,1.20
2022-12-27T10:24:29.634Z,1.10
2022-12-27T10:27:36.815Z,1.55
2022-12-27T10:30:42.442Z,1.30
2022-12-27T10:33:48.746Z,0.90
2022-12-27T10:36:54.420Z,1.25
2022-12-27T10:39:59.946Z,1.75
2022-12-27T10:43:04.612Z,1.23
2022-12-27T10:46:23.623Z,1.30
2022-12-27T10:49:30.718Z,1.40
2022-12-27T10:52:38.564Z,1.30
2022-12-27T10:55:42.158Z,1.20
2022-12-27T10:59:08.978Z,1.05
2022-12-27T11:02:23.446Z,1.60
2022-12-27T11:05:28.061Z,1.13
2022-12-27T11:08:34.842Z,1.30
2022-12-27T11:11:46.943Z,1.15
2022-12-27T11:14:59.270Z,1.30
2022-12-27T11:18:12.014Z,1.20
2022-12-27T11:21:24.101Z,1.27
2022-12-27T11:24:44.934Z,1.25
2022-12-27T11:27:49.174Z,1.20
2022-12-27T11:30:58.041Z,1.13
2022-12-27T11:34:05.016Z,1.60
2022-12-27T11:37:14.298Z,1.67
2022-12-27T11:40:25.784Z,1.30
2022-12-27T11:43:39.190Z,1.10
2022-12-27T11:46:45.455Z,1.08
2022-12-27T11:49:53.388Z,1.63
2022-12-27T11:53:09.823Z,1.17
2022-12-27T11:56:17.555Z,1.60
2022-12-27T11:59:52.533Z,1.15
2022-12-27T12:03:17.432Z,1.50
2022-12-27T12:06:31.368Z,1.30
2022-12-27T12:09:47.900Z,1.13
2022-12-27T12:13:19.012Z,1.08
2022-12-27T12:16:39.383Z,1.25
2022-12-27T12:19:50.348Z,1.17
2022-12-27T12:23:07.599Z,1.33
2022-12-27T12:26:35.320Z,1.40
2022-12-27T12:29:56.458Z,1.42
2022-12-27T12:33:07.686Z,1.10
2022-12-27T12:36:26.045Z,1.63
2022-12-27T12:39:36.505Z,1.35
2022-12-27T12:43:05.393Z,1.52
2022-12-27T12:46:15.235Z,1.63
2022-12-27T12:49:39.355Z,0.90
2022-12-27T12:53:00.399Z,1.42
2022-12-27T12:56:17.266Z,1.10
2022-12-27T12:59:30.892Z,0.95
2022-12-27T13:02:53.478Z,1.40
2022-12-27T13:06:15.748Z,1.30
2022-12-27T13:09:22.179Z,1.23
2022-12-27T13:12:30.926Z,1.33
2022-12-27T13:15:39.205Z,1.75
2022-12-27T13:18:47.463Z,1.30
2022-12-27T13:21:57.543Z,1.17
2022-12-27T13:25:11.311Z,1.80
2022-12-27T13:28:26.898Z,1.08
2022-12-27T13:31:41.907Z,1.77
2022-12-27T13:34:53.660Z,1.20
2022-12-27T13:38:04.373Z,1.77
2022-12-27T13:41:37.646Z,1.58
2022-12-27T13:44:49.618Z,1.10
2022-12-27T13:48:11.172Z,1.38
2022-12-27T13:51:25.197Z,1.42
2022-12-27T13:54:45.625Z,1.60
2022-12-27T13:58:06.650Z,1.70
2022-12-27T14:01:30.419Z,1.50
2022-12-27T14:04:56.057Z,1.42
2022-12-27T14:08:09.534Z,1.73
2022-12-27T14:11:17.566Z,1.20
2022-12-27T14:14:28.171Z,1.55
2022-12-27T14:17:35.576Z,1.38
2022-12-27T14:20:49.787Z,1.35
2022-12-27T14:24:07.552Z,1.92
2022-12-27T14:27:34.989Z,2.22
2022-12-27T14:31:07.145Z,1.65
2022-12-27T14:34:39.545Z,1.10
2022-12-27T14:38:15.098Z,1.45
2022-12-27T14:41:45.527Z,2.05
2022-12-27T14:45:19.092Z,1.60
2022-12-27T14:48:42.294Z,1.23
2022-12-27T14:52:12.351Z,1.92
2022-12-27T14:55:30.919Z,2.10
2022-12-27T14:58:41.043Z,1.48
2022-12-27T15:01:51.834Z,1.95
2022-12-27T15:05:03.662Z,2.15
2022-12-27T15:08:26.623Z,1.70
2022-12-27T15:11:42.717Z,2.20
2022-12-27T15:14:57.326Z,2.53
2022-12-27T15:18:12.611Z,2.50
2022-12-27T15:21:28.082Z,2.38
2022-12-27T15:24:45.231Z,1.95
2022-12-27T15:27:55.307Z,2.13
2022-12-27T15:31:03.319Z,3.78
2022-12-27T15:34:38.264Z,8.20
2022-12-27T15:38:06.691Z,7.82
2022-12-27T15:41:16.119Z,7.00
2022-12-27T15:44:53.838Z,7.78
2022-12-27T15:48:07.123Z,8.93
2022-12-27T15:51:14.019Z,9.02
2022-12-27T15:54:23.942Z,6.07
2022-12-27T15:57:40.199Z,4.55
2022-12-27T16:00:46.206Z,3.83
2022-12-27T16:03:50.784Z,3.42
2022-12-27T16:06:57.720Z,2.90
2022-12-27T16:10:20.599Z,2.53
2022-12-27T16:13:43.223Z,2.58
2022-12-27T16:16:51.949Z,2.40
2022-12-27T16:20:13.032Z,2.00
2022-12-27T16:23:23.421Z,1.92
2022-12-27T16:26:28.417Z,1.90
2022-12-27T16:29:33.766Z,2.22
2022-12-27T16:32:39.253Z,2.90
2022-12-27T16:35:43.931Z,2.08
2022-12-27T16:38:49.227Z,2.20
2022-12-27T16:42:02.201Z,2.22
2022-12-27T16:45:26.591Z,3.13
2022-12-27T16:48:38.742Z,4.03
2022-12-27T16:51:44.897Z,3.13
2022-12-27T16:54:53.661Z,3.50
2022-12-27T16:58:18.135Z,3.40
2022-12-27T17:01:32.682Z,3.08
2022-12-27T17:04:54.918Z,5.53
2022-12-27T17:08:15.321Z,5.03
2022-12-27T17:11:29.056Z,4.18
2022-12-27T17:14:37.953Z,4.03
2022-12-27T17:17:41.719Z,3.53
2022-12-27T17:20:46.618Z,3.67
2022-12-27T17:23:52.101Z,2.72
2022-12-27T17:27:04.913Z,2.55
2022-12-27T17:30:14.570Z,2.72
2022-12-27T17:33:22.958Z,3.00
2022-12-27T17:36:37.029Z,6.40
2022-12-27T17:39:52.255Z,4.57
2022-12-27T17:43:21.868Z,5.80
2022-12-27T17:46:30.808Z,5.45
2022-12-27T17:49:34.830Z,4.85
2022-12-27T17:52:56.626Z,3.58
2022-12-27T17:56:31.491Z,3.42
2022-12-27T17:59:35.943Z,2.97
2022-12-27T18:02:42.763Z,2.78
2022-12-27T18:05:49.141Z,3.35
2022-12-27T18:08:52.777Z,3.00
2022-12-27T18:11:58.124Z,2.85
2022-12-27T18:15:09.757Z,3.03
2022-12-27T18:18:18.195Z,3.25
2022-12-27T18:21:28.609Z,3.35
2022-12-27T18:24:35.410Z,3.05
2022-12-27T18:27:42.718Z,3.95
2022-12-27T18:30:48.538Z,3.35
2022-12-27T18:33:52.839Z,3.00
2022-12-27T18:37:00.734Z,3.38
2022-12-27T18:40:05.519Z,2.95
2022-12-27T18:43:15.543Z,3.10
2022-12-27T18:46:21.670Z,2.83
2022-12-27T18:49:26.572Z,3.05
2022-12-27T18:52:32.582Z,2.75
2022-12-27T18:55:39.262Z,2.85
2022-12-27T18:59:00.159Z,3.25
2022-12-27T19:02:04.605Z,3.50
2022-12-27T19:05:16.004Z,3.00
2022-12-27T19:08:20.704Z,3.22
2022-12-27T19:11:33.069Z,3.08
2022-12-27T19:14:45.986Z,3.35
2022-12-27T19:17:54.180Z,3.95
2022-12-27T19:21:34.416Z,3.10
2022-12-27T19:24:45.217Z,2.67
2022-12-27T19:28:05.308Z,2.80
2022-12-27T19:31:17.442Z,2.88
2022-12-27T19:34:21.885Z,3.08
2022-12-27T19:37:27.089Z,2.85
2022-12-27T19:40:30.699Z,2.83
2022-12-27T19:43:42.024Z,3.05
2022-12-27T19:46:47.202Z,2.72
2022-12-27T19:49:50.647Z,2.63
2022-12-27T19:52:54.140Z,3.35
2022-12-27T19:55:58.265Z,2.92
2022-12-27T19:59:01.958Z,3.05
2022-12-27T20:02:12.819Z,3.10
2022-12-27T20:05:16.692Z,2.50
2022-12-27T20:08:38.493Z,3.22
2022-12-27T20:11:45.671Z,3.58
2022-12-27T20:14:49.150Z,4.28
2022-12-27T20:17:54.182Z,3.42
2022-12-27T20:20:59.734Z,3.92
2022-12-27T20:24:03.305Z,4.93
2022-12-27T20:27:07.221Z,4.53
2022-12-27T20:30:11.377Z,4.43
2022-12-27T20:33:16.806Z,4.95
2022-12-27T20:36:20.224Z,6.13
2022-12-27T20:39:23.674Z,5.90
2022-12-27T20:42:27.493Z,7.20
2022-12-27T20:45:31.085Z,5.07
2022-12-27T20:48:37.973Z,6.65
2022-12-27T20:51:41.846Z,6.13
2022-12-27T20:54:45.411Z,6.72
2022-12-27T20:57:48.810Z,5.00
2022-12-27T21:00:52.152Z,4.93
2022-12-27T21:03:57.227Z,8.45
2022-12-27T21:07:00.699Z,5.68
2022-12-27T21:10:06.015Z,5.97
2022-12-27T21:13:09.599Z,6.88
2022-12-27T21:16:14.085Z,6.28
2022-12-27T21:19:19.796Z,7.65
2022-12-27T21:22:23.715Z,6.70
2022-12-27T21:25:27.204Z,7.97
2022-12-27T21:28:30.613Z,6.10
2022-12-27T21:31:34.033Z,5.75
2022-12-27T21:34:39.152Z,5.63
2022-12-27T21:37:42.647Z,5.63
2022-12-27T21:40:46.055Z,4.95
2022-12-27T21:43:50.624Z,5.22
2022-12-27T21:46:54.144Z,4.97
2022-12-27T21:49:58.847Z,5.15
2022-12-27T21:53:03.852Z,5.85
2022-12-27T21:56:07.765Z,5.45
2022-12-27T21:59:12.014Z,4.95
2022-12-27T22:02:15.673Z,4.63
2022-12-27T22:05:20.877Z,4.70
2022-12-27T22:08:24.323Z,5.40
2022-12-27T22:11:28.289Z,4.95
2022-12-27T22:14:36.635Z,4.95
2022-12-27T22:17:40.730Z,5.10
2022-12-27T22:20:47.195Z,5.32
2022-12-27T22:23:51.506Z,4.75
2022-12-27T22:26:55.289Z,4.60
2022-12-27T22:29:59.912Z,5.15
2022-12-27T22:33:03.798Z,5.28
2022-12-27T22:36:10.022Z,5.47
2022-12-27T22:39:13.474Z,4.88
2022-12-27T22:42:16.996Z,4.45
2022-12-27T22:45:20.379Z,4.35
2022-12-27T22:48:23.783Z,4.45
2022-12-27T22:51:29.145Z,4.35
2022-12-27T22:55:04.958Z,5.93
2022-12-27T22:57:57.045Z,4.50
2022-12-27T23:01:00.658Z,4.55
2022-12-27T23:04:05.942Z,3.85
2022-12-27T23:07:10.907Z,3.33
2022-12-27T23:10:14.381Z,3.10
2022-12-27T23:13:17.983Z,3.65
2022-12-27T23:16:21.548Z,3.08
2022-12-27T23:19:25.602Z,3.30
2022-12-27T23:22:30.434Z,2.88
2022-12-27T23:25:33.876Z,2.70
2022-12-27T23:28:37.919Z,2.30
2022-12-27T23:31:54.574Z,1.95
2022-12-27T23:34:59.165Z,2.10
2022-12-27T23:38:04.116Z,2.50
2022-12-27T23:41:08.396Z,2.47
2022-12-27T23:44:11.894Z,1.90
2022-12-27T23:47:15.309Z,2.17
2022-12-27T23:50:21.167Z,2.17
2022-12-27T23:53:26.072Z,1.60
2022-12-27T23:56:30.095Z,1.58
2022-12-27T23:59:33.489Z,1.60
